Terminal Aerodrome Forecast
Issued by NWS Charleston, WV

Current Version | Previous Version | Text Only | Print | Product List | Glossary Off
Versions: 1 2 3 4 5 6 7 8 9 10 11 12 13 14 15 16 17 18 19 20 21

018
FTUS41 KRLX 232331
TAFHTS
TAF
KHTS 232331Z 2400/2424 14005KT 6SM SHRA OVC035
      TEMPO 2400/2402 OVC030
     FM240200 VRB03KT P6SM OVC025
     FM240800 VRB03KT P6SM OVC010
     FM241400 14004KT 6SM SHRA OVC015
     FM241600 15004KT P6SM SHRA OVC020
     FM242000 11004KT 3SM SHRA OVC020=

USA.gov is the U.S. government's official web portal to all federal, state and local government web resources and services.